sensor_id;sensor_type;location;lat;lon;timestamp;P1;durP1;ratioP1;P2;durP2;ratioP2
23814;SDS011;12088;53.078;8.720;2023-12-20T00:01:29;11.47;;;2.43;;
23814;SDS011;12088;53.078;8.720;2023-12-20T00:03:55;9.60;;;2.40;;
23814;SDS011;12088;53.078;8.720;2023-12-20T00:06:21;12.47;;;2.43;;
23814;SDS011;12088;53.078;8.720;2023-12-20T00:08:47;14.90;;;2.40;;
23814;SDS011;12088;53.078;8.720;2023-12-20T00:11:13;10.87;;;2.73;;
23814;SDS011;12088;53.078;8.720;2023-12-20T00:13:39;14.97;;;3.33;;
23814;SDS011;12088;53.078;8.720;2023-12-20T00:16:05;9.43;;;2.13;;
23814;SDS011;12088;53.078;8.720;2023-12-20T00:18:31;12.50;;;2.67;;
23814;SDS011;12088;53.078;8.720;2023-12-20T00:20:57;8.97;;;2.27;;
23814;SDS011;12088;53.078;8.720;2023-12-20T00:23:23;9.77;;;2.33;;
23814;SDS011;12088;53.078;8.720;2023-12-20T00:25:49;10.40;;;2.30;;
23814;SDS011;12088;53.078;8.720;2023-12-20T00:28:15;10.50;;;2.03;;
23814;SDS011;12088;53.078;8.720;2023-12-20T00:30:41;15.13;;;3.07;;
23814;SDS011;12088;53.078;8.720;2023-12-20T00:33:07;13.80;;;2.43;;
23814;SDS011;12088;53.078;8.720;2023-12-20T00:35:33;11.67;;;2.17;;
23814;SDS011;12088;53.078;8.720;2023-12-20T00:37:59;10.70;;;2.50;;
23814;SDS011;12088;53.078;8.720;2023-12-20T00:40:25;7.03;;;2.60;;
23814;SDS011;12088;53.078;8.720;2023-12-20T00:42:51;13.33;;;2.60;;
23814;SDS011;12088;53.078;8.720;2023-12-20T00:45:17;13.00;;;2.60;;
23814;SDS011;12088;53.078;8.720;2023-12-20T00:47:43;8.33;;;2.27;;
23814;SDS011;12088;53.078;8.720;2023-12-20T00:50:09;11.77;;;3.23;;
23814;SDS011;12088;53.078;8.720;2023-12-20T00:52:35;8.47;;;2.40;;
23814;SDS011;12088;53.078;8.720;2023-12-20T00:55:01;10.67;;;2.47;;
23814;SDS011;12088;53.078;8.720;2023-12-20T00:57:28;18.73;;;2.73;;
23814;SDS011;12088;53.078;8.720;2023-12-20T00:59:55;10.83;;;2.73;;
23814;SDS011;12088;53.078;8.720;2023-12-20T01:02:21;16.73;;;3.10;;
23814;SDS011;12088;53.078;8.720;2023-12-20T01:04:47;11.97;;;2.70;;
23814;SDS011;12088;53.078;8.720;2023-12-20T01:07:13;11.60;;;2.90;;
23814;SDS011;12088;53.078;8.720;2023-12-20T01:09:39;13.47;;;3.47;;
23814;SDS011;12088;53.078;8.720;2023-12-20T01:12:05;10.03;;;2.70;;
23814;SDS011;12088;53.078;8.720;2023-12-20T01:14:31;11.33;;;2.60;;
23814;SDS011;12088;53.078;8.720;2023-12-20T01:16:57;11.60;;;3.23;;
23814;SDS011;12088;53.078;8.720;2023-12-20T01:19:24;17.50;;;3.73;;
23814;SDS011;12088;53.078;8.720;2023-12-20T01:21:52;12.47;;;2.57;;
23814;SDS011;12088;53.078;8.720;2023-12-20T01:24:18;11.53;;;2.57;;
23814;SDS011;12088;53.078;8.720;2023-12-20T01:26:44;12.27;;;2.70;;
23814;SDS011;12088;53.078;8.720;2023-12-20T01:29:10;12.23;;;2.60;;
23814;SDS011;12088;53.078;8.720;2023-12-20T01:31:36;10.77;;;2.40;;
23814;SDS011;12088;53.078;8.720;2023-12-20T01:34:02;21.20;;;3.20;;
23814;SDS011;12088;53.078;8.720;2023-12-20T01:36:28;10.37;;;2.70;;
23814;SDS011;12088;53.078;8.720;2023-12-20T01:38:54;16.03;;;4.23;;
23814;SDS011;12088;53.078;8.720;2023-12-20T01:41:20;10.67;;;3.27;;
23814;SDS011;12088;53.078;8.720;2023-12-20T01:43:46;11.27;;;2.93;;
23814;SDS011;12088;53.078;8.720;2023-12-20T01:46:12;12.73;;;2.50;;
23814;SDS011;12088;53.078;8.720;2023-12-20T01:48:38;7.27;;;2.13;;
23814;SDS011;12088;53.078;8.720;2023-12-20T01:51:04;9.63;;;3.40;;
23814;SDS011;12088;53.078;8.720;2023-12-20T01:53:30;6.00;;;2.20;;
23814;SDS011;12088;53.078;8.720;2023-12-20T01:55:57;7.87;;;2.50;;
23814;SDS011;12088;53.078;8.720;2023-12-20T01:58:24;10.47;;;2.17;;
23814;SDS011;12088;53.078;8.720;2023-12-20T02:00:50;12.40;;;2.33;;
23814;SDS011;12088;53.078;8.720;2023-12-20T02:03:17;14.57;;;2.67;;
23814;SDS011;12088;53.078;8.720;2023-12-20T02:05:44;10.67;;;2.20;;
23814;SDS011;12088;53.078;8.720;2023-12-20T02:08:10;15.90;;;2.83;;
23814;SDS011;12088;53.078;8.720;2023-12-20T02:10:36;12.53;;;2.40;;
23814;SDS011;12088;53.078;8.720;2023-12-20T02:13:03;11.80;;;2.90;;
23814;SDS011;12088;53.078;8.720;2023-12-20T02:15:29;10.57;;;2.30;;
23814;SDS011;12088;53.078;8.720;2023-12-20T02:17:55;14.10;;;2.83;;
23814;SDS011;12088;53.078;8.720;2023-12-20T02:20:21;12.50;;;2.40;;
23814;SDS011;12088;53.078;8.720;2023-12-20T02:22:47;10.60;;;2.50;;
23814;SDS011;12088;53.078;8.720;2023-12-20T02:25:13;14.60;;;3.00;;
23814;SDS011;12088;53.078;8.720;2023-12-20T02:27:39;18.83;;;2.87;;
23814;SDS011;12088;53.078;8.720;2023-12-20T02:30:06;9.17;;;2.73;;
23814;SDS011;12088;53.078;8.720;2023-12-20T02:32:32;9.27;;;2.60;;
23814;SDS011;12088;53.078;8.720;2023-12-20T02:34:58;9.00;;;2.50;;
23814;SDS011;12088;53.078;8.720;2023-12-20T02:37:24;14.33;;;2.90;;
23814;SDS011;12088;53.078;8.720;2023-12-20T02:39:50;8.67;;;2.40;;
23814;SDS011;12088;53.078;8.720;2023-12-20T02:42:16;11.40;;;2.57;;
23814;SDS011;12088;53.078;8.720;2023-12-20T02:44:42;10.70;;;2.50;;
23814;SDS011;12088;53.078;8.720;2023-12-20T02:47:08;15.10;;;3.00;;
23814;SDS011;12088;53.078;8.720;2023-12-20T02:49:34;12.00;;;2.40;;
23814;SDS011;12088;53.078;8.720;2023-12-20T02:52:00;10.97;;;2.73;;
23814;SDS011;12088;53.078;8.720;2023-12-20T02:54:26;10.00;;;2.60;;
23814;SDS011;12088;53.078;8.720;2023-12-20T02:56:52;11.33;;;2.30;;
23814;SDS011;12088;53.078;8.720;2023-12-20T02:59:18;9.30;;;2.70;;
23814;SDS011;12088;53.078;8.720;2023-12-20T03:01:45;18.52;;;3.50;;
23814;SDS011;12088;53.078;8.720;2023-12-20T03:04:11;12.20;;;2.93;;
23814;SDS011;12088;53.078;8.720;2023-12-20T03:06:38;14.70;;;2.83;;
23814;SDS011;12088;53.078;8.720;2023-12-20T03:09:04;12.27;;;2.90;;
23814;SDS011;12088;53.078;8.720;2023-12-20T03:11:30;10.37;;;3.00;;
23814;SDS011;12088;53.078;8.720;2023-12-20T03:13:57;7.17;;;2.43;;
23814;SDS011;12088;53.078;8.720;2023-12-20T03:16:23;11.50;;;2.70;;
23814;SDS011;12088;53.078;8.720;2023-12-20T03:18:49;11.40;;;2.50;;
23814;SDS011;12088;53.078;8.720;2023-12-20T03:21:15;11.77;;;3.03;;
23814;SDS011;12088;53.078;8.720;2023-12-20T03:23:41;10.93;;;3.23;;
23814;SDS011;12088;53.078;8.720;2023-12-20T03:26:08;11.47;;;3.20;;
23814;SDS011;12088;53.078;8.720;2023-12-20T03:28:34;11.43;;;3.10;;
23814;SDS011;12088;53.078;8.720;2023-12-20T03:31:01;10.97;;;2.80;;
23814;SDS011;12088;53.078;8.720;2023-12-20T03:33:27;10.73;;;3.10;;
23814;SDS011;12088;53.078;8.720;2023-12-20T03:35:53;16.03;;;3.60;;
23814;SDS011;12088;53.078;8.720;2023-12-20T03:38:20;18.63;;;3.73;;
23814;SDS011;12088;53.078;8.720;2023-12-20T03:40:46;14.27;;;4.00;;
23814;SDS011;12088;53.078;8.720;2023-12-20T03:43:12;11.30;;;3.23;;
23814;SDS011;12088;53.078;8.720;2023-12-20T03:45:38;9.73;;;3.27;;
23814;SDS011;12088;53.078;8.720;2023-12-20T03:48:04;14.93;;;3.57;;
23814;SDS011;12088;53.078;8.720;2023-12-20T03:50:30;13.97;;;2.97;;
23814;SDS011;12088;53.078;8.720;2023-12-20T03:52:56;13.83;;;3.17;;
23814;SDS011;12088;53.078;8.720;2023-12-20T03:55:22;8.73;;;3.50;;
23814;SDS011;12088;53.078;8.720;2023-12-20T03:57:48;12.97;;;3.63;;
23814;SDS011;12088;53.078;8.720;2023-12-20T04:00:14;13.27;;;3.63;;
23814;SDS011;12088;53.078;8.720;2023-12-20T04:02:41;12.73;;;4.20;;
23814;SDS011;12088;53.078;8.720;2023-12-20T04:05:07;12.77;;;3.17;;
23814;SDS011;12088;53.078;8.720;2023-12-20T04:07:33;14.03;;;4.20;;
23814;SDS011;12088;53.078;8.720;2023-12-20T04:09:59;16.47;;;4.40;;
23814;SDS011;12088;53.078;8.720;2023-12-20T04:12:27;13.27;;;4.00;;
23814;SDS011;12088;53.078;8.720;2023-12-20T04:14:53;13.70;;;4.77;;
23814;SDS011;12088;53.078;8.720;2023-12-20T04:17:19;12.93;;;3.77;;
23814;SDS011;12088;53.078;8.720;2023-12-20T04:19:47;16.47;;;3.63;;
23814;SDS011;12088;53.078;8.720;2023-12-20T04:22:13;12.77;;;4.00;;
23814;SDS011;12088;53.078;8.720;2023-12-20T04:24:39;16.77;;;3.73;;
23814;SDS011;12088;53.078;8.720;2023-12-20T04:27:07;11.27;;;3.83;;
23814;SDS011;12088;53.078;8.720;2023-12-20T04:29:33;14.27;;;3.27;;
23814;SDS011;12088;53.078;8.720;2023-12-20T04:31:59;15.00;;;3.80;;
23814;SDS011;12088;53.078;8.720;2023-12-20T04:34:25;16.50;;;5.23;;
23814;SDS011;12088;53.078;8.720;2023-12-20T04:36:51;15.97;;;4.80;;
23814;SDS011;12088;53.078;8.720;2023-12-20T04:39:17;21.83;;;5.20;;
23814;SDS011;12088;53.078;8.720;2023-12-20T04:41:43;12.80;;;4.70;;
23814;SDS011;12088;53.078;8.720;2023-12-20T04:44:09;17.17;;;5.10;;
23814;SDS011;12088;53.078;8.720;2023-12-20T04:46:35;18.13;;;5.10;;
23814;SDS011;12088;53.078;8.720;2023-12-20T04:49:01;13.87;;;5.20;;
23814;SDS011;12088;53.078;8.720;2023-12-20T04:51:27;13.73;;;4.63;;
23814;SDS011;12088;53.078;8.720;2023-12-20T04:53:53;14.50;;;4.83;;
23814;SDS011;12088;53.078;8.720;2023-12-20T04:56:19;19.23;;;4.67;;
23814;SDS011;12088;53.078;8.720;2023-12-20T04:58:45;16.40;;;4.83;;
23814;SDS011;12088;53.078;8.720;2023-12-20T05:01:12;16.37;;;4.47;;
23814;SDS011;12088;53.078;8.720;2023-12-20T05:03:39;24.17;;;5.17;;
23814;SDS011;12088;53.078;8.720;2023-12-20T05:06:05;16.00;;;4.00;;
23814;SDS011;12088;53.078;8.720;2023-12-20T05:08:31;17.90;;;4.63;;
23814;SDS011;12088;53.078;8.720;2023-12-20T05:10:57;18.50;;;4.93;;
23814;SDS011;12088;53.078;8.720;2023-12-20T05:13:23;12.37;;;4.20;;
23814;SDS011;12088;53.078;8.720;2023-12-20T05:15:49;16.20;;;3.93;;
23814;SDS011;12088;53.078;8.720;2023-12-20T05:18:15;18.60;;;3.87;;
23814;SDS011;12088;53.078;8.720;2023-12-20T05:20:41;19.70;;;4.67;;
23814;SDS011;12088;53.078;8.720;2023-12-20T05:23:07;14.03;;;4.47;;
23814;SDS011;12088;53.078;8.720;2023-12-20T05:25:33;14.20;;;4.20;;
23814;SDS011;12088;53.078;8.720;2023-12-20T05:28:00;21.10;;;4.30;;
23814;SDS011;12088;53.078;8.720;2023-12-20T05:30:25;25.03;;;7.40;;
23814;SDS011;12088;53.078;8.720;2023-12-20T05:32:51;11.27;;;3.83;;
23814;SDS011;12088;53.078;8.720;2023-12-20T05:35:17;21.43;;;4.80;;
23814;SDS011;12088;53.078;8.720;2023-12-20T05:37:44;20.23;;;4.07;;
23814;SDS011;12088;53.078;8.720;2023-12-20T05:40:10;18.17;;;4.00;;
23814;SDS011;12088;53.078;8.720;2023-12-20T05:42:36;24.90;;;5.27;;
23814;SDS011;12088;53.078;8.720;2023-12-20T05:45:03;17.97;;;4.00;;
23814;SDS011;12088;53.078;8.720;2023-12-20T05:47:29;13.43;;;3.37;;
23814;SDS011;12088;53.078;8.720;2023-12-20T05:49:55;16.97;;;3.83;;
23814;SDS011;12088;53.078;8.720;2023-12-20T05:52:21;16.53;;;3.30;;
23814;SDS011;12088;53.078;8.720;2023-12-20T05:54:47;14.77;;;4.90;;
23814;SDS011;12088;53.078;8.720;2023-12-20T05:57:13;18.23;;;4.00;;
23814;SDS011;12088;53.078;8.720;2023-12-20T05:59:39;16.67;;;4.23;;
23814;SDS011;12088;53.078;8.720;2023-12-20T06:02:05;12.43;;;3.17;;
23814;SDS011;12088;53.078;8.720;2023-12-20T06:04:31;16.93;;;3.73;;
23814;SDS011;12088;53.078;8.720;2023-12-20T06:06:58;24.47;;;4.87;;
23814;SDS011;12088;53.078;8.720;2023-12-20T06:09:24;16.50;;;3.43;;
23814;SDS011;12088;53.078;8.720;2023-12-20T06:11:50;15.63;;;4.83;;
23814;SDS011;12088;53.078;8.720;2023-12-20T06:14:16;17.93;;;3.90;;
23814;SDS011;12088;53.078;8.720;2023-12-20T06:16:42;17.77;;;4.03;;
23814;SDS011;12088;53.078;8.720;2023-12-20T06:19:08;25.77;;;5.37;;
23814;SDS011;12088;53.078;8.720;2023-12-20T06:21:34;21.23;;;4.13;;
23814;SDS011;12088;53.078;8.720;2023-12-20T06:24:00;16.43;;;4.40;;
23814;SDS011;12088;53.078;8.720;2023-12-20T06:26:26;19.90;;;4.90;;
23814;SDS011;12088;53.078;8.720;2023-12-20T06:28:52;19.97;;;5.20;;
23814;SDS011;12088;53.078;8.720;2023-12-20T06:31:18;21.50;;;4.70;;
23814;SDS011;12088;53.078;8.720;2023-12-20T06:33:44;17.33;;;5.17;;
23814;SDS011;12088;53.078;8.720;2023-12-20T06:36:11;21.47;;;5.60;;
23814;SDS011;12088;53.078;8.720;2023-12-20T06:38:38;19.33;;;4.20;;
23814;SDS011;12088;53.078;8.720;2023-12-20T06:41:04;17.60;;;4.13;;
23814;SDS011;12088;53.078;8.720;2023-12-20T06:43:30;17.80;;;3.70;;
23814;SDS011;12088;53.078;8.720;2023-12-20T06:45:57;18.10;;;4.20;;
23814;SDS011;12088;53.078;8.720;2023-12-20T06:48:23;16.33;;;3.83;;
23814;SDS011;12088;53.078;8.720;2023-12-20T06:50:49;19.73;;;4.83;;
23814;SDS011;12088;53.078;8.720;2023-12-20T06:53:15;23.10;;;5.10;;
23814;SDS011;12088;53.078;8.720;2023-12-20T06:55:41;18.20;;;4.60;;
23814;SDS011;12088;53.078;8.720;2023-12-20T06:58:07;21.23;;;5.53;;
23814;SDS011;12088;53.078;8.720;2023-12-20T07:00:34;24.97;;;5.27;;
23814;SDS011;12088;53.078;8.720;2023-12-20T07:03:00;18.43;;;4.90;;
23814;SDS011;12088;53.078;8.720;2023-12-20T07:05:26;17.97;;;4.80;;
23814;SDS011;12088;53.078;8.720;2023-12-20T07:07:52;22.30;;;5.40;;
23814;SDS011;12088;53.078;8.720;2023-12-20T07:10:18;18.00;;;4.63;;
23814;SDS011;12088;53.078;8.720;2023-12-20T07:12:44;15.87;;;4.73;;
23814;SDS011;12088;53.078;8.720;2023-12-20T07:15:11;14.10;;;3.97;;
23814;SDS011;12088;53.078;8.720;2023-12-20T07:17:37;18.80;;;4.20;;
23814;SDS011;12088;53.078;8.720;2023-12-20T07:20:03;19.73;;;5.43;;
23814;SDS011;12088;53.078;8.720;2023-12-20T07:22:30;14.73;;;4.90;;
23814;SDS011;12088;53.078;8.720;2023-12-20T07:24:59;26.60;;;5.70;;
23814;SDS011;12088;53.078;8.720;2023-12-20T07:27:26;20.17;;;5.17;;
23814;SDS011;12088;53.078;8.720;2023-12-20T07:29:52;15.83;;;4.57;;
23814;SDS011;12088;53.078;8.720;2023-12-20T07:32:18;16.83;;;6.50;;
23814;SDS011;12088;53.078;8.720;2023-12-20T07:34:44;13.90;;;7.87;;
23814;SDS011;12088;53.078;8.720;2023-12-20T07:37:10;22.70;;;4.57;;
23814;SDS011;12088;53.078;8.720;2023-12-20T07:39:40;18.70;;;6.50;;
23814;SDS011;12088;53.078;8.720;2023-12-20T07:42:06;20.10;;;5.03;;
23814;SDS011;12088;53.078;8.720;2023-12-20T07:44:33;19.47;;;5.73;;
23814;SDS011;12088;53.078;8.720;2023-12-20T07:46:59;18.57;;;4.30;;
23814;SDS011;12088;53.078;8.720;2023-12-20T07:49:26;21.10;;;4.23;;
23814;SDS011;12088;53.078;8.720;2023-12-20T07:51:52;17.50;;;5.60;;
23814;SDS011;12088;53.078;8.720;2023-12-20T07:54:18;19.73;;;4.70;;
23814;SDS011;12088;53.078;8.720;2023-12-20T07:56:44;14.50;;;5.00;;
23814;SDS011;12088;53.078;8.720;2023-12-20T07:59:10;16.60;;;4.07;;
23814;SDS011;12088;53.078;8.720;2023-12-20T08:01:36;20.73;;;5.30;;
23814;SDS011;12088;53.078;8.720;2023-12-20T08:04:02;23.17;;;5.00;;
23814;SDS011;12088;53.078;8.720;2023-12-20T08:06:28;16.33;;;4.00;;
23814;SDS011;12088;53.078;8.720;2023-12-20T08:08:53;17.10;;;6.03;;
23814;SDS011;12088;53.078;8.720;2023-12-20T08:11:19;16.90;;;5.30;;
23814;SDS011;12088;53.078;8.720;2023-12-20T08:13:45;16.07;;;4.03;;
23814;SDS011;12088;53.078;8.720;2023-12-20T08:16:11;19.27;;;4.27;;
23814;SDS011;12088;53.078;8.720;2023-12-20T08:18:38;14.70;;;4.13;;
23814;SDS011;12088;53.078;8.720;2023-12-20T08:21:04;11.90;;;7.07;;
23814;SDS011;12088;53.078;8.720;2023-12-20T08:23:32;15.23;;;5.07;;
23814;SDS011;12088;53.078;8.720;2023-12-20T08:26:02;19.50;;;4.23;;
23814;SDS011;12088;53.078;8.720;2023-12-20T08:28:28;14.57;;;4.40;;
23814;SDS011;12088;53.078;8.720;2023-12-20T08:30:56;21.60;;;4.47;;
23814;SDS011;12088;53.078;8.720;2023-12-20T08:33:22;18.53;;;4.50;;
23814;SDS011;12088;53.078;8.720;2023-12-20T08:35:48;19.73;;;6.30;;
23814;SDS011;12088;53.078;8.720;2023-12-20T08:38:14;21.10;;;6.37;;
23814;SDS011;12088;53.078;8.720;2023-12-20T08:40:40;18.90;;;8.70;;
23814;SDS011;12088;53.078;8.720;2023-12-20T08:43:06;17.57;;;4.67;;
23814;SDS011;12088;53.078;8.720;2023-12-20T08:45:32;19.30;;;5.03;;
23814;SDS011;12088;53.078;8.720;2023-12-20T08:47:58;20.33;;;4.43;;
23814;SDS011;12088;53.078;8.720;2023-12-20T08:50:24;17.07;;;7.47;;
23814;SDS011;12088;53.078;8.720;2023-12-20T08:52:50;15.53;;;5.17;;
23814;SDS011;12088;53.078;8.720;2023-12-20T08:55:16;15.23;;;5.47;;
23814;SDS011;12088;53.078;8.720;2023-12-20T08:57:43;14.33;;;6.13;;
23814;SDS011;12088;53.078;8.720;2023-12-20T09:00:09;22.30;;;5.17;;
23814;SDS011;12088;53.078;8.720;2023-12-20T09:02:35;11.67;;;5.13;;
23814;SDS011;12088;53.078;8.720;2023-12-20T09:05:02;18.00;;;5.73;;
23814;SDS011;12088;53.078;8.720;2023-12-20T09:07:28;24.90;;;6.30;;
23814;SDS011;12088;53.078;8.720;2023-12-20T09:09:58;18.20;;;5.43;;
23814;SDS011;12088;53.078;8.720;2023-12-20T09:12:24;19.87;;;6.80;;
23814;SDS011;12088;53.078;8.720;2023-12-20T09:14:50;23.40;;;5.37;;
23814;SDS011;12088;53.078;8.720;2023-12-20T09:17:17;20.57;;;5.80;;
23814;SDS011;12088;53.078;8.720;2023-12-20T09:19:43;18.37;;;5.20;;
23814;SDS011;12088;53.078;8.720;2023-12-20T09:22:09;14.90;;;4.83;;
23814;SDS011;12088;53.078;8.720;2023-12-20T09:24:35;22.87;;;4.50;;
23814;SDS011;12088;53.078;8.720;2023-12-20T09:27:01;19.00;;;4.93;;
23814;SDS011;12088;53.078;8.720;2023-12-20T09:29:28;20.77;;;8.53;;
23814;SDS011;12088;53.078;8.720;2023-12-20T09:31:54;21.10;;;4.70;;
23814;SDS011;12088;53.078;8.720;2023-12-20T09:34:20;15.27;;;5.97;;
23814;SDS011;12088;53.078;8.720;2023-12-20T09:36:47;15.97;;;4.30;;
23814;SDS011;12088;53.078;8.720;2023-12-20T09:39:13;15.23;;;7.57;;
23814;SDS011;12088;53.078;8.720;2023-12-20T09:41:43;16.57;;;6.00;;
23814;SDS011;12088;53.078;8.720;2023-12-20T09:44:11;17.50;;;5.03;;
23814;SDS011;12088;53.078;8.720;2023-12-20T09:46:39;18.47;;;5.47;;
23814;SDS011;12088;53.078;8.720;2023-12-20T09:49:08;13.80;;;7.17;;
23814;SDS011;12088;53.078;8.720;2023-12-20T09:51:34;13.33;;;3.33;;
23814;SDS011;12088;53.078;8.720;2023-12-20T09:54:00;10.40;;;3.27;;
23814;SDS011;12088;53.078;8.720;2023-12-20T09:56:29;7.93;;;3.27;;
23814;SDS011;12088;53.078;8.720;2023-12-20T09:58:55;6.07;;;1.80;;
23814;SDS011;12088;53.078;8.720;2023-12-20T10:01:21;5.07;;;2.27;;
23814;SDS011;12088;53.078;8.720;2023-12-20T10:03:47;2.90;;;1.30;;
23814;SDS011;12088;53.078;8.720;2023-12-20T10:06:13;4.10;;;1.30;;
23814;SDS011;12088;53.078;8.720;2023-12-20T10:08:39;4.37;;;1.60;;
23814;SDS011;12088;53.078;8.720;2023-12-20T10:11:05;2.30;;;0.93;;
23814;SDS011;12088;53.078;8.720;2023-12-20T10:13:31;3.13;;;1.70;;
23814;SDS011;12088;53.078;8.720;2023-12-20T10:15:57;5.30;;;1.50;;
23814;SDS011;12088;53.078;8.720;2023-12-20T10:18:23;2.30;;;1.27;;
23814;SDS011;12088;53.078;8.720;2023-12-20T10:20:49;3.20;;;1.17;;
23814;SDS011;12088;53.078;8.720;2023-12-20T10:23:15;6.23;;;2.03;;
23814;SDS011;12088;53.078;8.720;2023-12-20T10:25:42;4.37;;;1.53;;
23814;SDS011;12088;53.078;8.720;2023-12-20T10:30:34;5.03;;;1.20;;
23814;SDS011;12088;53.078;8.720;2023-12-20T10:33:00;6.70;;;1.70;;
23814;SDS011;12088;53.078;8.720;2023-12-20T10:35:26;7.33;;;1.70;;
23814;SDS011;12088;53.078;8.720;2023-12-20T10:37:54;3.77;;;1.27;;
23814;SDS011;12088;53.078;8.720;2023-12-20T10:40:21;4.10;;;1.30;;
23814;SDS011;12088;53.078;8.720;2023-12-20T10:42:48;3.33;;;1.20;;
23814;SDS011;12088;53.078;8.720;2023-12-20T10:45:14;4.37;;;1.37;;
23814;SDS011;12088;53.078;8.720;2023-12-20T10:47:42;4.33;;;1.97;;
23814;SDS011;12088;53.078;8.720;2023-12-20T10:50:08;6.03;;;1.37;;
23814;SDS011;12088;53.078;8.720;2023-12-20T10:52:34;4.87;;;1.20;;
23814;SDS011;12088;53.078;8.720;2023-12-20T10:55:01;5.13;;;1.30;;
23814;SDS011;12088;53.078;8.720;2023-12-20T10:57:27;2.40;;;2.20;;
23814;SDS011;12088;53.078;8.720;2023-12-20T10:59:54;6.30;;;1.30;;
23814;SDS011;12088;53.078;8.720;2023-12-20T11:02:20;10.43;;;1.40;;
23814;SDS011;12088;53.078;8.720;2023-12-20T11:09:47;7.40;;;1.63;;
23814;SDS011;12088;53.078;8.720;2023-12-20T11:12:16;4.20;;;1.50;;
23814;SDS011;12088;53.078;8.720;2023-12-20T11:14:47;6.53;;;2.60;;
23814;SDS011;12088;53.078;8.720;2023-12-20T11:17:14;4.67;;;1.80;;
23814;SDS011;12088;53.078;8.720;2023-12-20T11:20:04;7.40;;;3.13;;
23814;SDS011;12088;53.078;8.720;2023-12-20T11:22:30;7.70;;;1.70;;
23814;SDS011;12088;53.078;8.720;2023-12-20T11:25:03;5.97;;;1.57;;
23814;SDS011;12088;53.078;8.720;2023-12-20T11:27:30;10.27;;;1.70;;
23814;SDS011;12088;53.078;8.720;2023-12-20T11:29:56;7.23;;;2.53;;
23814;SDS011;12088;53.078;8.720;2023-12-20T11:34:58;5.27;;;1.80;;
23814;SDS011;12088;53.078;8.720;2023-12-20T11:37:31;7.83;;;1.77;;
23814;SDS011;12088;53.078;8.720;2023-12-20T11:40:01;10.27;;;1.93;;
23814;SDS011;12088;53.078;8.720;2023-12-20T11:42:27;6.50;;;1.73;;
23814;SDS011;12088;53.078;8.720;2023-12-20T11:44:53;8.93;;;3.70;;
23814;SDS011;12088;53.078;8.720;2023-12-20T11:47:19;7.07;;;2.17;;
23814;SDS011;12088;53.078;8.720;2023-12-20T11:49:48;10.97;;;2.23;;
23814;SDS011;12088;53.078;8.720;2023-12-20T11:52:16;10.77;;;1.83;;
23814;SDS011;12088;53.078;8.720;2023-12-20T11:54:42;11.70;;;2.50;;
23814;SDS011;12088;53.078;8.720;2023-12-20T11:57:08;9.93;;;3.23;;
23814;SDS011;12088;53.078;8.720;2023-12-20T11:59:34;6.43;;;2.73;;
23814;SDS011;12088;53.078;8.720;2023-12-20T12:01:59;13.60;;;1.93;;
23814;SDS011;12088;53.078;8.720;2023-12-20T12:04:26;7.60;;;2.70;;
23814;SDS011;12088;53.078;8.720;2023-12-20T12:06:53;12.87;;;3.93;;
23814;SDS011;12088;53.078;8.720;2023-12-20T12:09:19;11.17;;;2.63;;
23814;SDS011;12088;53.078;8.720;2023-12-20T12:11:45;12.47;;;3.20;;
23814;SDS011;12088;53.078;8.720;2023-12-20T12:14:13;12.87;;;2.50;;
23814;SDS011;12088;53.078;8.720;2023-12-20T12:16:44;7.87;;;2.80;;
23814;SDS011;12088;53.078;8.720;2023-12-20T12:19:20;12.57;;;2.37;;
23814;SDS011;12088;53.078;8.720;2023-12-20T12:21:47;9.13;;;1.73;;
23814;SDS011;12088;53.078;8.720;2023-12-20T12:24:13;7.80;;;2.67;;
23814;SDS011;12088;53.078;8.720;2023-12-20T12:26:38;11.57;;;2.43;;
23814;SDS011;12088;53.078;8.720;2023-12-20T12:29:07;13.80;;;2.90;;
23814;SDS011;12088;53.078;8.720;2023-12-20T12:31:33;11.40;;;5.13;;
23814;SDS011;12088;53.078;8.720;2023-12-20T12:33:59;15.37;;;2.60;;
23814;SDS011;12088;53.078;8.720;2023-12-20T12:36:25;9.13;;;2.77;;
23814;SDS011;12088;53.078;8.720;2023-12-20T12:38:51;11.03;;;2.43;;
23814;SDS011;12088;53.078;8.720;2023-12-20T12:41:17;12.83;;;1.97;;
23814;SDS011;12088;53.078;8.720;2023-12-20T12:43:43;14.47;;;3.27;;
23814;SDS011;12088;53.078;8.720;2023-12-20T12:46:09;12.53;;;2.83;;
23814;SDS011;12088;53.078;8.720;2023-12-20T12:48:35;11.17;;;2.43;;
23814;SDS011;12088;53.078;8.720;2023-12-20T12:51:01;9.87;;;2.70;;
23814;SDS011;12088;53.078;8.720;2023-12-20T12:53:27;11.37;;;2.80;;
23814;SDS011;12088;53.078;8.720;2023-12-20T12:55:53;15.27;;;3.37;;
23814;SDS011;12088;53.078;8.720;2023-12-20T12:58:19;11.27;;;2.67;;
23814;SDS011;12088;53.078;8.720;2023-12-20T13:00:45;10.53;;;2.57;;
23814;SDS011;12088;53.078;8.720;2023-12-20T13:03:11;9.40;;;2.33;;
23814;SDS011;12088;53.078;8.720;2023-12-20T13:05:37;8.37;;;3.90;;
23814;SDS011;12088;53.078;8.720;2023-12-20T13:08:03;15.43;;;2.90;;
23814;SDS011;12088;53.078;8.720;2023-12-20T13:10:30;9.40;;;2.47;;
23814;SDS011;12088;53.078;8.720;2023-12-20T13:12:56;14.40;;;2.43;;
23814;SDS011;12088;53.078;8.720;2023-12-20T13:15:22;7.67;;;2.50;;
23814;SDS011;12088;53.078;8.720;2023-12-20T13:17:48;13.00;;;3.10;;
23814;SDS011;12088;53.078;8.720;2023-12-20T13:20:14;10.13;;;2.40;;
23814;SDS011;12088;53.078;8.720;2023-12-20T13:22:40;13.00;;;2.47;;
23814;SDS011;12088;53.078;8.720;2023-12-20T13:25:06;13.43;;;3.10;;
23814;SDS011;12088;53.078;8.720;2023-12-20T13:27:32;10.77;;;2.57;;
23814;SDS011;12088;53.078;8.720;2023-12-20T13:29:58;7.13;;;2.43;;
23814;SDS011;12088;53.078;8.720;2023-12-20T13:32:24;11.50;;;2.07;;
23814;SDS011;12088;53.078;8.720;2023-12-20T13:34:50;15.97;;;2.77;;
23814;SDS011;12088;53.078;8.720;2023-12-20T13:37:16;13.63;;;3.50;;
23814;SDS011;12088;53.078;8.720;2023-12-20T13:39:42;7.77;;;2.40;;
23814;SDS011;12088;53.078;8.720;2023-12-20T13:42:08;9.83;;;2.93;;
23814;SDS011;12088;53.078;8.720;2023-12-20T13:44:34;10.70;;;3.07;;
23814;SDS011;12088;53.078;8.720;2023-12-20T13:47:00;16.10;;;3.20;;
23814;SDS011;12088;53.078;8.720;2023-12-20T13:49:27;9.90;;;2.60;;
23814;SDS011;12088;53.078;8.720;2023-12-20T13:51:53;9.40;;;2.43;;
23814;SDS011;12088;53.078;8.720;2023-12-20T13:54:20;10.93;;;2.80;;
23814;SDS011;12088;53.078;8.720;2023-12-20T13:56:47;14.67;;;3.10;;
23814;SDS011;12088;53.078;8.720;2023-12-20T13:59:13;10.53;;;2.73;;
23814;SDS011;12088;53.078;8.720;2023-12-20T14:01:40;17.10;;;3.50;;
23814;SDS011;12088;53.078;8.720;2023-12-20T14:04:06;9.50;;;2.40;;
23814;SDS011;12088;53.078;8.720;2023-12-20T14:06:32;12.47;;;3.53;;
23814;SDS011;12088;53.078;8.720;2023-12-20T14:08:58;19.23;;;3.13;;
23814;SDS011;12088;53.078;8.720;2023-12-20T14:11:25;10.77;;;3.77;;
23814;SDS011;12088;53.078;8.720;2023-12-20T14:13:51;17.37;;;3.90;;
23814;SDS011;12088;53.078;8.720;2023-12-20T14:16:17;13.97;;;3.97;;
23814;SDS011;12088;53.078;8.720;2023-12-20T14:18:43;13.47;;;2.97;;
23814;SDS011;12088;53.078;8.720;2023-12-20T14:21:09;13.57;;;3.60;;
23814;SDS011;12088;53.078;8.720;2023-12-20T14:23:35;13.00;;;3.30;;
23814;SDS011;12088;53.078;8.720;2023-12-20T14:26:01;15.50;;;2.77;;
23814;SDS011;12088;53.078;8.720;2023-12-20T14:28:28;17.83;;;3.50;;
23814;SDS011;12088;53.078;8.720;2023-12-20T14:30:54;9.50;;;3.17;;
23814;SDS011;12088;53.078;8.720;2023-12-20T14:33:21;11.00;;;3.87;;
23814;SDS011;12088;53.078;8.720;2023-12-20T14:35:47;18.07;;;3.40;;
23814;SDS011;12088;53.078;8.720;2023-12-20T14:38:13;8.70;;;2.73;;
23814;SDS011;12088;53.078;8.720;2023-12-20T14:40:40;16.30;;;2.67;;
23814;SDS011;12088;53.078;8.720;2023-12-20T14:43:06;12.80;;;2.87;;